createdAt,value
2018-12-06T00:15:43.099Z,5.50
2018-12-06T00:20:47.111Z,5.40
2018-12-06T00:25:51.340Z,5.50
2018-12-06T00:30:54.886Z,5.50
2018-12-06T00:35:58.402Z,5.40
2018-12-06T00:41:02.148Z,5.40
2018-12-06T00:46:06.141Z,5.50
2018-12-06T00:51:09.637Z,5.60
2018-12-06T00:56:13.172Z,5.60
2018-12-06T01:01:18.500Z,5.50
2018-12-06T01:06:22.773Z,5.60
2018-12-06T01:11:28.459Z,5.50
2018-12-06T01:16:32.395Z,5.50
2018-12-06T01:21:36.350Z,5.60
2018-12-06T01:26:41.718Z,5.60
2018-12-06T01:31:45.494Z,5.50
2018-12-06T01:36:49.190Z,5.40
2018-12-06T01:41:53.171Z,5.30
2018-12-06T01:46:56.745Z,5.20
2018-12-06T01:52:00.260Z,5.20
2018-12-06T01:57:03.875Z,5.30
2018-12-06T02:02:07.538Z,5.40
2018-12-06T02:07:11.095Z,5.40
2018-12-06T02:12:14.628Z,5.60
2018-12-06T02:17:18.583Z,5.70
2018-12-06T02:22:22.470Z,5.80
2018-12-06T02:27:27.349Z,5.80
2018-12-06T02:32:31.226Z,5.70
2018-12-06T02:37:35.261Z,5.60
2018-12-06T02:42:39.930Z,5.50
2018-12-06T02:47:43.471Z,5.40
2018-12-06T02:52:47.096Z,5.50
2018-12-06T02:57:50.565Z,5.50
2018-12-06T03:02:54.100Z,5.50
2018-12-06T03:07:57.673Z,5.60
2018-12-06T03:13:01.620Z,5.70
2018-12-06T03:18:06.970Z,5.70
2018-12-06T03:23:10.998Z,5.70
2018-12-06T03:28:15.429Z,5.70
2018-12-06T03:33:19.420Z,5.70
2018-12-06T03:38:23.388Z,5.70
2018-12-06T03:43:27.286Z,5.70
2018-12-06T03:48:31.163Z,5.70
2018-12-06T03:53:34.964Z,5.60
2018-12-06T03:58:38.531Z,5.60
2018-12-06T04:03:42.086Z,5.40
2018-12-06T04:08:45.586Z,5.30
2018-12-06T04:13:50.403Z,5.30
2018-12-06T04:18:55.331Z,5.30
2018-12-06T04:23:59.853Z,5.30
2018-12-06T04:29:03.565Z,5.30
2018-12-06T04:34:08.053Z,5.40
2018-12-06T04:39:12.444Z,5.50
2018-12-06T04:44:16.493Z,5.60
2018-12-06T04:49:21.212Z,5.70
2018-12-06T04:54:25.326Z,5.70
2018-12-06T04:59:29.429Z,5.80
2018-12-06T05:04:32.978Z,5.70
2018-12-06T05:09:37.700Z,5.70
2018-12-06T05:14:41.285Z,5.70
2018-12-06T05:19:44.807Z,5.60
2018-12-06T05:24:48.524Z,5.70
2018-12-06T05:29:52.019Z,5.80
2018-12-06T05:34:55.641Z,5.90
2018-12-06T05:39:59.699Z,6.10
2018-12-06T05:45:04.278Z,6.40
2018-12-06T05:50:09.050Z,6.30
2018-12-06T05:55:12.756Z,6.30
2018-12-06T06:00:16.327Z,6.30
2018-12-06T06:05:19.881Z,6.10
2018-12-06T06:10:23.668Z,6.00
2018-12-06T06:15:27.336Z,5.90
2018-12-06T06:20:31.061Z,5.90
2018-12-06T06:25:34.632Z,5.90
2018-12-06T06:30:38.198Z,5.70
2018-12-06T06:35:41.757Z,5.70
2018-12-06T06:40:45.362Z,5.80
2018-12-06T06:45:48.948Z,5.90
2018-12-06T06:50:52.591Z,6.00
2018-12-06T06:55:56.077Z,6.00
2018-12-06T07:00:59.770Z,6.10
2018-12-06T07:06:07.230Z,6.20
2018-12-06T07:11:11.958Z,6.30
2018-12-06T07:16:15.441Z,6.30
2018-12-06T07:21:19.365Z,6.30
2018-12-06T07:26:22.846Z,6.40
2018-12-06T07:31:28.071Z,6.50
2018-12-06T07:36:32.633Z,6.60
2018-12-06T07:41:36.817Z,6.60
2018-12-06T07:47:17.168Z,6.70
2018-12-06T07:52:20.857Z,6.80
2018-12-06T07:57:24.676Z,6.90
2018-12-06T08:02:28.628Z,6.90
2018-12-06T08:07:32.625Z,7.00
2018-12-06T08:12:36.293Z,7.10
2018-12-06T08:17:39.979Z,7.20
2018-12-06T08:22:43.903Z,7.30
2018-12-06T08:27:48.194Z,7.50
2018-12-06T08:32:51.744Z,7.70
2018-12-06T08:37:55.242Z,7.90
2018-12-06T08:42:58.917Z,8.00
2018-12-06T08:48:02.444Z,8.10
2018-12-06T08:53:06.038Z,8.20
2018-12-06T08:58:11.371Z,8.30
2018-12-06T09:03:14.918Z,8.50
2018-12-06T09:08:18.468Z,8.60
2018-12-06T09:13:22.554Z,8.70
2018-12-06T09:18:26.569Z,9.10
2018-12-06T09:23:30.512Z,9.50
2018-12-06T09:28:34.512Z,9.60
2018-12-06T09:33:48.355Z,9.60
2018-12-06T09:38:52.148Z,9.80
2018-12-06T09:43:56.283Z,9.90
2018-12-06T09:49:00.135Z,9.90
2018-12-06T09:54:04.343Z,10.00
2018-12-06T09:59:08.733Z,10.10
2018-12-06T10:04:12.417Z,10.30
2018-12-06T10:09:16.238Z,10.20
2018-12-06T10:14:19.845Z,10.40
2018-12-06T10:19:23.472Z,10.50
2018-12-06T10:24:26.930Z,10.60
2018-12-06T10:29:30.454Z,10.80
2018-12-06T10:34:34.112Z,11.10
2018-12-06T10:39:37.580Z,11.30
2018-12-06T10:44:41.430Z,11.40
2018-12-06T10:49:44.901Z,11.30
2018-12-06T10:54:48.360Z,11.20
2018-12-06T10:59:51.804Z,11.30
2018-12-06T11:04:55.337Z,11.40
2018-12-06T11:09:59.028Z,11.90
2018-12-06T11:15:02.670Z,12.30
2018-12-06T11:20:06.585Z,12.60
2018-12-06T11:25:10.065Z,12.30
2018-12-06T11:30:13.564Z,12.00
2018-12-06T11:35:17.128Z,11.70
2018-12-06T11:40:20.648Z,11.40
2018-12-06T11:45:24.229Z,11.30
2018-12-06T11:50:27.714Z,11.30
2018-12-06T11:55:31.328Z,11.30
2018-12-06T12:00:35.811Z,11.40
2018-12-06T12:05:39.721Z,11.50
2018-12-06T12:10:43.831Z,11.50
2018-12-06T12:15:47.822Z,11.50
2018-12-06T12:20:52.345Z,11.50
2018-12-06T12:25:56.489Z,11.60
2018-12-06T12:31:00.154Z,11.90
2018-12-06T12:36:03.808Z,12.00
2018-12-06T12:41:07.483Z,12.00
2018-12-06T12:46:11.169Z,11.90
2018-12-06T12:51:14.707Z,11.90
2018-12-06T12:56:18.377Z,11.80
2018-12-06T13:01:22.037Z,11.90
2018-12-06T13:06:25.783Z,12.00
2018-12-06T13:11:29.281Z,12.00
2018-12-06T13:16:32.985Z,11.80
2018-12-06T13:21:36.505Z,11.60
2018-12-06T13:26:40.040Z,11.60
2018-12-06T13:31:43.844Z,11.70
2018-12-06T13:36:47.345Z,11.80
2018-12-06T13:41:50.940Z,11.70
2018-12-06T13:46:54.462Z,11.70
2018-12-06T13:51:58.609Z,11.60
2018-12-06T13:57:02.409Z,11.60
2018-12-06T14:02:06.367Z,11.60
2018-12-06T14:07:10.249Z,11.60
2018-12-06T14:12:14.048Z,11.60
2018-12-06T14:17:18.272Z,11.50
2018-12-06T14:22:22.103Z,11.30
2018-12-06T14:27:26.061Z,11.20
2018-12-06T14:32:30.621Z,11.10
2018-12-06T14:37:34.445Z,11.00
2018-12-06T14:42:38.160Z,10.90
2018-12-06T14:47:43.614Z,10.80
2018-12-06T14:52:47.970Z,10.60
2018-12-06T14:57:53.897Z,10.30
2018-12-06T15:02:59.542Z,10.30
2018-12-06T15:08:04.877Z,10.30
2018-12-06T15:13:08.874Z,10.30
2018-12-06T15:18:13.301Z,10.30
2018-12-06T15:23:17.511Z,10.20
2018-12-06T15:28:21.548Z,10.20
2018-12-06T15:33:25.203Z,10.10
2018-12-06T15:38:28.785Z,10.00
2018-12-06T15:43:32.381Z,9.90
2018-12-06T15:48:35.993Z,9.90
2018-12-06T15:53:39.694Z,9.70
2018-12-06T15:58:43.346Z,9.60
2018-12-06T16:03:47.371Z,9.60
2018-12-06T16:08:53.043Z,9.50
2018-12-06T16:13:57.284Z,9.50
2018-12-06T16:19:03.017Z,9.50
2018-12-06T16:24:06.640Z,9.50
2018-12-06T16:29:11.273Z,9.60
2018-12-06T16:34:22.218Z,9.60
2018-12-06T16:39:27.113Z,9.60
2018-12-06T16:44:30.583Z,9.60
2018-12-06T16:49:34.394Z,9.50
2018-12-06T16:54:38.044Z,9.50
2018-12-06T16:59:41.557Z,9.50
2018-12-06T17:04:46.159Z,9.60
2018-12-06T17:09:49.835Z,9.40
2018-12-06T17:20:08.487Z,8.80
2018-12-06T17:25:12.662Z,8.70
2018-12-06T17:30:16.667Z,8.70
2018-12-06T17:35:21.591Z,8.80
2018-12-06T17:40:25.513Z,8.90
2018-12-06T17:45:29.053Z,9.10
2018-12-06T17:50:32.892Z,9.20
2018-12-06T17:55:43.280Z,9.20
2018-12-06T18:00:47.009Z,9.20
2018-12-06T18:05:50.505Z,9.30
2018-12-06T18:10:54.700Z,9.40
2018-12-06T18:15:58.597Z,9.60
2018-12-06T18:21:02.741Z,9.60
2018-12-06T18:26:06.830Z,9.60
2018-12-06T18:31:11.063Z,9.60
2018-12-06T18:36:15.494Z,9.60
2018-12-06T18:41:19.299Z,9.50
2018-12-06T18:46:23.145Z,9.50
2018-12-06T18:51:26.837Z,9.50
2018-12-06T18:56:30.548Z,9.50
2018-12-06T19:01:34.231Z,9.50
2018-12-06T19:06:44.952Z,9.50
2018-12-06T19:11:48.483Z,9.50
2018-12-06T19:16:52.214Z,9.50
2018-12-06T19:21:55.964Z,9.60
2018-12-06T19:27:01.434Z,9.60
2018-12-06T19:32:06.409Z,9.60
2018-12-06T19:37:10.134Z,9.60
2018-12-06T19:42:13.663Z,9.70
2018-12-06T19:47:17.721Z,9.70
2018-12-06T19:52:21.610Z,9.80
2018-12-06T19:57:25.131Z,9.80
2018-12-06T20:02:29.221Z,9.80
2018-12-06T20:07:33.023Z,9.80
2018-12-06T20:12:36.842Z,9.80
2018-12-06T20:17:40.737Z,9.80
2018-12-06T20:22:44.929Z,9.80
2018-12-06T20:27:50.461Z,9.80
2018-12-06T20:32:54.266Z,9.80
2018-12-06T20:37:57.717Z,9.80
2018-12-06T20:43:01.493Z,9.80
2018-12-06T20:48:05.154Z,9.90
2018-12-06T20:53:08.745Z,10.00
2018-12-06T20:58:15.222Z,10.00
2018-12-06T21:03:19.270Z,9.90
2018-12-06T21:08:23.534Z,10.00
2018-12-06T21:13:27.174Z,10.00
2018-12-06T21:18:30.895Z,10.10
2018-12-06T21:23:37.062Z,10.20
2018-12-06T21:28:41.025Z,10.10
2018-12-06T21:33:46.524Z,10.10
2018-12-06T21:39:05.080Z,10.10
2018-12-06T21:44:21.832Z,10.20
2018-12-06T21:49:25.337Z,10.20
2018-12-06T21:54:28.981Z,10.30
2018-12-06T21:59:32.602Z,10.30
2018-12-06T22:04:36.340Z,10.20
2018-12-06T22:09:40.152Z,10.30
2018-12-06T22:14:44.277Z,10.20
2018-12-06T22:19:49.367Z,10.30
2018-12-06T22:24:53.622Z,10.30
2018-12-06T22:29:58.514Z,10.20
2018-12-06T22:35:02.137Z,10.20
2018-12-06T22:40:06.345Z,10.20
2018-12-06T22:45:25.257Z,10.20
2018-12-06T22:50:28.881Z,10.20
2018-12-06T22:55:33.653Z,10.10
2018-12-06T23:00:37.788Z,10.10
2018-12-06T23:05:42.022Z,10.10
2018-12-06T23:10:46.360Z,10.20
2018-12-06T23:15:50.836Z,10.10
2018-12-06T23:20:54.486Z,10.10
2018-12-06T23:25:58.084Z,10.10
2018-12-06T23:31:01.593Z,10.10
2018-12-06T23:36:05.604Z,10.20
2018-12-06T23:41:09.834Z,10.20
2018-12-06T23:46:13.758Z,10.40
2018-12-06T23:51:29.729Z,10.30
2018-12-06T23:56:33.443Z,10.40
